Time;durP1;ratioP1;P1;durP2;ratioP2;P2;SDS_P1;SDS_P2;PMS_P1;PMS_P2;Temp;Humidity;BMP_temperature;BMP_pressure;BME280_temperature;BME280_humidity;BME280_pressure;Samples;Min_cycle;Max_cycle;Signal;HPM_P1;HPM_P2
2022/11/09 00:00:48;;;;;;;7.15;2.33;;;14.20;99.90;;;;;;5040791;28;20505;-87
2022/11/09 00:03:14;;;;;;;7.10;2.35;;;14.20;99.90;;;;;;5050031;28;20029;-88
2022/11/09 00:05:40;;;;;;;3.47;2.25;;;14.20;99.90;;;;;;5050683;28;20055;-85
2022/11/09 00:08:08;;;;;;;7.25;1.77;;;14.20;99.90;;;;;;5045842;28;20114;-86
2022/11/09 00:10:34;;;;;;;3.53;1.95;;;14.20;99.90;;;;;;5044455;28;20493;-89
2022/11/09 00:13:00;;;;;;;5.10;1.88;;;14.20;99.90;;;;;;5045277;28;20041;-84
2022/11/09 00:15:25;;;;;;;3.75;2.33;;;14.20;99.90;;;;;;5046159;28;20106;-88
2022/11/09 00:17:51;;;;;;;2.53;1.77;;;14.20;99.90;;;;;;5054272;28;20473;-86
2022/11/09 00:20:16;;;;;;;6.78;2.03;;;14.20;99.90;;;;;;5049425;28;20397;-86
2022/11/09 00:22:45;;;;;;;6.50;2.20;;;14.30;99.90;;;;;;5043196;28;20033;-88
2022/11/09 00:25:11;;;;;;;5.30;1.98;;;14.20;99.90;;;;;;5043991;28;20032;-87
2022/11/09 00:27:36;;;;;;;8.73;2.85;;;14.20;99.90;;;;;;5046620;28;20083;-85
2022/11/09 00:30:02;;;;;;;7.53;2.40;;;14.20;99.90;;;;;;5049733;28;20037;-87
2022/11/09 00:32:28;;;;;;;5.32;1.92;;;14.10;99.90;;;;;;5047549;28;20045;-90
2022/11/09 00:34:54;;;;;;;2.03;1.67;;;14.10;99.90;;;;;;5044275;28;20465;-85
2022/11/09 00:37:19;;;;;;;5.03;2.25;;;14.10;99.90;;;;;;5045267;28;20041;-87
2022/11/09 00:39:45;;;;;;;4.30;2.05;;;14.10;99.90;;;;;;5039678;28;20099;-90
2022/11/09 00:42:10;;;;;;;6.35;1.95;;;14.10;99.90;;;;;;5055304;28;20051;-87
2022/11/09 00:44:36;;;;;;;7.22;2.22;;;14.10;99.90;;;;;;5048205;28;20033;-84
2022/11/09 00:47:01;;;;;;;8.60;1.90;;;14.00;99.90;;;;;;5053957;28;20052;-87
2022/11/09 00:49:27;;;;;;;5.18;2.10;;;14.00;99.90;;;;;;5035811;28;20041;-89
2022/11/09 00:51:53;;;;;;;8.63;2.22;;;14.10;99.90;;;;;;5053280;28;20029;-86
2022/11/09 00:54:18;;;;;;;8.23;2.28;;;14.10;99.90;;;;;;5047265;28;20040;-87
2022/11/09 00:56:44;;;;;;;3.70;2.20;;;14.10;99.90;;;;;;5045303;28;20017;-92
2022/11/09 00:59:10;;;;;;;4.20;2.05;;;14.10;99.90;;;;;;5051422;28;20049;-87
2022/11/09 01:01:36;;;;;;;9.02;2.33;;;14.10;99.90;;;;;;5040276;28;20064;-86
2022/11/09 01:04:01;;;;;;;7.30;2.10;;;14.00;99.90;;;;;;5044683;28;20033;-86
2022/11/09 01:06:27;;;;;;;6.22;1.90;;;14.00;99.90;;;;;;5048191;28;20397;-89
2022/11/09 01:08:53;;;;;;;3.67;1.85;;;13.90;99.90;;;;;;5043754;28;20013;-87
2022/11/09 01:11:20;;;;;;;8.95;2.53;;;13.90;99.90;;;;;;5049086;28;20037;-87
2022/11/09 01:13:45;;;;;;;5.10;2.22;;;13.90;99.90;;;;;;5044292;28;20103;-87
2022/11/09 01:16:14;;;;;;;7.35;2.45;;;13.90;99.90;;;;;;5047015;28;20041;-88
2022/11/09 01:18:40;;;;;;;6.82;2.03;;;13.90;99.90;;;;;;5053278;28;20033;-86
2022/11/09 01:21:09;;;;;;;8.02;2.10;;;13.90;99.90;;;;;;5045205;28;20029;-82
2022/11/09 01:23:34;;;;;;;5.50;2.38;;;13.90;99.90;;;;;;5046224;28;20028;-93
2022/11/09 01:26:04;;;;;;;4.00;1.88;;;13.90;99.90;;;;;;5050593;28;20028;-86
2022/11/09 01:28:29;;;;;;;4.90;1.90;;;13.90;99.90;;;;;;5046204;28;20132;-91
2022/11/09 01:30:59;;;;;;;5.60;1.98;;;13.80;99.90;;;;;;5039173;28;20121;-88
2022/11/09 01:33:24;;;;;;;2.97;2.47;;;13.80;99.90;;;;;;5044476;28;20114;-89
2022/11/09 01:35:50;;;;;;;3.70;2.00;;;13.80;99.90;;;;;;5059031;28;20028;-87
2022/11/09 01:38:16;;;;;;;4.45;2.67;;;13.80;99.90;;;;;;5045287;28;20514;-85
2022/11/09 01:40:41;;;;;;;5.10;1.75;;;13.80;99.90;;;;;;5043770;28;20021;-85
2022/11/09 01:43:19;;;;;;;7.53;2.38;;;13.80;99.90;;;;;;5045598;28;20025;-88
2022/11/09 01:45:50;;;;;;;5.85;2.38;;;13.80;99.90;;;;;;5044158;28;20056;-84
2022/11/09 01:48:21;;;;;;;6.95;3.38;;;13.70;99.90;;;;;;5049946;28;20061;-87
2022/11/09 01:51:22;;;;;;;5.70;2.22;;;13.70;99.90;;;;;;5050870;28;20036;-82
2022/11/09 01:53:51;;;;;;;9.15;2.45;;;13.70;99.90;;;;;;5035529;28;20070;-87
2022/11/09 01:56:18;;;;;;;4.20;2.15;;;13.70;99.90;;;;;;5047073;28;20113;-89
2022/11/09 01:58:59;;;;;;;5.75;2.03;;;13.60;99.90;;;;;;5042393;28;20556;-88
2022/11/09 02:01:26;;;;;;;7.28;2.40;;;13.70;99.90;;;;;;5038987;28;20449;-92
2022/11/09 02:04:04;;;;;;;4.15;2.25;;;13.70;99.90;;;;;;5039618;28;20028;-84
2022/11/09 02:06:31;;;;;;;9.90;2.50;;;13.70;99.90;;;;;;5041864;28;20033;-89
2022/11/09 02:09:07;;;;;;;3.75;2.10;;;13.70;99.90;;;;;;5038322;28;20037;-88
2022/11/09 02:11:35;;;;;;;3.22;2.17;;;13.70;99.90;;;;;;5042018;28;20500;-87
2022/11/09 02:14:03;;;;;;;7.68;1.92;;;13.70;99.90;;;;;;5048891;28;20548;-86
2022/11/09 02:16:29;;;;;;;7.47;2.30;;;13.70;99.90;;;;;;5047774;28;20506;-85
2022/11/09 02:18:57;;;;;;;10.13;2.55;;;13.70;99.90;;;;;;5032358;28;20040;-85
2022/11/09 02:21:26;;;;;;;6.20;2.63;;;13.70;99.90;;;;;;5044671;28;20957;-86
2022/11/09 02:23:51;;;;;;;5.35;2.15;;;13.70;99.90;;;;;;5044328;28;20462;-88
2022/11/09 02:26:42;;;;;;;6.95;2.40;;;13.80;99.90;;;;;;5035971;28;20029;-79
2022/11/09 02:29:10;;;;;;;5.60;1.88;;;13.80;99.90;;;;;;5034000;28;20118;-90
2022/11/09 02:31:41;;;;;;;6.20;2.67;;;13.70;99.90;;;;;;5048262;28;20480;-87
2022/11/09 02:34:12;;;;;;;7.50;2.83;;;13.70;99.90;;;;;;5041358;28;20037;-87
2022/11/09 02:36:37;;;;;;;3.95;1.92;;;13.70;99.90;;;;;;5024781;28;20036;-86
2022/11/09 02:39:04;;;;;;;5.47;1.83;;;13.70;99.90;;;;;;5043097;28;20032;-87
2022/11/09 02:41:31;;;;;;;9.80;2.63;;;13.60;99.90;;;;;;5046315;28;20025;-93
2022/11/09 02:43:59;;;;;;;4.28;2.55;;;13.70;99.90;;;;;;5044158;28;20112;-93
2022/11/09 02:46:33;;;;;;;6.53;2.10;;;13.70;99.90;;;;;;5039325;28;20079;-88
2022/11/09 02:48:59;;;;;;;7.07;2.00;;;13.70;99.90;;;;;;5041356;28;20056;-88
2022/11/09 02:51:25;;;;;;;5.82;2.30;;;13.70;99.90;;;;;;5044460;28;20057;-88
2022/11/09 02:53:51;;;;;;;4.60;1.83;;;13.60;99.90;;;;;;5045677;28;20137;-83
2022/11/09 02:56:16;;;;;;;3.88;2.10;;;13.60;99.90;;;;;;5038835;28;20025;-89
2022/11/09 02:58:42;;;;;;;7.53;2.33;;;13.60;99.90;;;;;;5033635;28;20132;-89
2022/11/09 03:01:07;;;;;;;2.78;1.83;;;13.60;99.90;;;;;;5039026;28;20451;-87
2022/11/09 03:03:33;;;;;;;5.88;2.92;;;13.70;99.90;;;;;;5038719;28;20119;-89
2022/11/09 03:05:59;;;;;;;7.63;2.88;;;13.80;99.90;;;;;;5035888;28;20033;-89
2022/11/09 03:08:24;;;;;;;5.75;2.80;;;13.70;99.90;;;;;;5038566;28;20075;-88
2022/11/09 03:10:50;;;;;;;2.90;2.15;;;13.70;99.90;;;;;;5045876;28;20057;-90
2022/11/09 03:13:16;;;;;;;5.88;2.70;;;13.80;99.90;;;;;;5043134;28;20060;-86
2022/11/09 03:15:41;;;;;;;4.07;2.17;;;13.70;99.90;;;;;;5039045;28;20061;-87
2022/11/09 03:18:07;;;;;;;5.75;2.58;;;13.70;99.90;;;;;;5030526;28;20108;-86
2022/11/09 03:20:33;;;;;;;11.23;2.53;;;13.70;99.90;;;;;;5035940;28;20060;-87
2022/11/09 03:22:59;;;;;;;9.50;2.78;;;13.70;99.90;;;;;;5033143;28;20482;-90
2022/11/09 03:25:26;;;;;;;5.43;2.17;;;13.70;99.90;;;;;;5029845;28;20025;-84
2022/11/09 03:28:03;;;;;;;3.83;2.38;;;13.70;99.90;;;;;;5033390;28;20033;-83
2022/11/09 03:30:29;;;;;;;6.20;2.65;;;13.70;99.90;;;;;;5041615;28;20029;-88
2022/11/09 03:33:08;;;;;;;4.97;2.67;;;13.60;99.90;;;;;;5038648;28;20048;-89
2022/11/09 03:35:36;;;;;;;4.70;2.22;;;13.70;99.90;;;;;;5028965;28;20052;-87
2022/11/09 03:38:02;;;;;;;7.25;2.58;;;13.70;99.90;;;;;;5044185;28;20071;-86
2022/11/09 03:40:28;;;;;;;5.47;2.60;;;13.70;99.90;;;;;;5041761;28;20072;-87
2022/11/09 03:42:54;;;;;;;6.07;2.42;;;13.70;99.90;;;;;;5037032;28;20025;-81
2022/11/09 03:45:20;;;;;;;8.05;3.83;;;13.70;99.90;;;;;;5031589;28;20044;-85
2022/11/09 03:47:46;;;;;;;5.90;2.47;;;13.80;99.90;;;;;;5030265;28;20033;-86
2022/11/09 03:50:14;;;;;;;3.40;2.22;;;13.80;99.90;;;;;;5035035;28;20272;-81
2022/11/09 03:52:43;;;;;;;7.55;3.00;;;13.70;99.90;;;;;;5034491;28;20049;-86
2022/11/09 03:55:09;;;;;;;4.45;2.65;;;13.70;99.90;;;;;;5053991;28;20524;-83
2022/11/09 03:57:37;;;;;;;5.20;2.58;;;13.70;99.90;;;;;;5044904;28;20091;-82
2022/11/09 04:00:05;;;;;;;2.97;2.38;;;13.70;99.90;;;;;;5043691;28;20033;-83
2022/11/09 04:02:31;;;;;;;6.18;2.17;;;13.70;99.90;;;;;;5050111;28;20493;-89
2022/11/09 04:04:57;;;;;;;3.40;2.53;;;13.70;99.90;;;;;;5045689;28;20017;-89
2022/11/09 04:07:25;;;;;;;3.30;2.13;;;13.70;99.90;;;;;;5047685;28;20123;-90
2022/11/09 04:09:51;;;;;;;10.75;2.72;;;13.70;99.90;;;;;;5046496;28;20031;-85
2022/11/09 04:12:16;;;;;;;5.78;2.63;;;13.80;99.90;;;;;;5051616;28;20485;-86
2022/11/09 04:14:42;;;;;;;7.20;2.47;;;13.80;99.90;;;;;;5042675;28;20262;-89
2022/11/09 04:17:07;;;;;;;6.15;2.95;;;13.80;99.90;;;;;;5046767;28;20032;-89
2022/11/09 04:19:33;;;;;;;9.90;3.53;;;13.70;99.90;;;;;;5044412;28;20021;-90
2022/11/09 04:21:59;;;;;;;9.07;3.28;;;13.70;99.90;;;;;;5045699;28;20039;-90
2022/11/09 04:24:25;;;;;;;4.00;2.75;;;13.60;99.90;;;;;;5053118;28;20138;-87
2022/11/09 04:26:50;;;;;;;5.85;2.67;;;13.60;99.90;;;;;;5048293;28;20131;-86
2022/11/09 04:29:16;;;;;;;5.50;2.60;;;13.50;99.90;;;;;;5044450;28;20751;-87
2022/11/09 04:31:42;;;;;;;6.30;3.10;;;13.50;99.90;;;;;;5047668;28;20029;-93
2022/11/09 04:34:08;;;;;;;12.73;2.97;;;13.50;99.90;;;;;;5048018;28;20037;-79
2022/11/09 04:36:34;;;;;;;7.18;2.72;;;13.40;99.90;;;;;;5047411;28;20060;-88
2022/11/09 04:39:00;;;;;;;3.63;2.38;;;13.40;99.90;;;;;;5042437;28;20029;-90
2022/11/09 04:41:27;;;;;;;8.13;2.90;;;13.30;99.90;;;;;;5045921;28;20079;-86
2022/11/09 04:43:52;;;;;;;5.97;2.70;;;13.30;99.90;;;;;;5041117;28;20455;-88
2022/11/09 04:46:18;;;;;;;8.38;2.80;;;13.20;99.90;;;;;;5048745;28;20032;-89
2022/11/09 04:48:43;;;;;;;4.97;3.30;;;13.20;99.90;;;;;;5043281;28;20033;-90
2022/11/09 04:51:09;;;;;;;7.97;2.78;;;13.20;99.90;;;;;;5056469;28;20087;-92
2022/11/09 04:53:36;;;;;;;4.68;2.78;;;13.10;99.90;;;;;;5045385;28;20041;-82
2022/11/09 04:56:04;;;;;;;6.05;3.17;;;13.10;99.90;;;;;;5046795;28;20082;-85
2022/11/09 04:58:29;;;;;;;8.77;3.28;;;13.00;99.90;;;;;;5044643;28;20063;-84
2022/11/09 05:01:02;;;;;;;7.85;3.80;;;13.00;99.90;;;;;;5044987;28;20466;-87
2022/11/09 05:03:28;;;;;;;4.55;2.78;;;13.00;99.90;;;;;;5045989;28;20401;-87
2022/11/09 05:05:53;;;;;;;3.95;2.72;;;13.00;99.90;;;;;;5048758;28;20038;-89
2022/11/09 05:08:19;;;;;;;8.95;3.80;;;13.00;99.90;;;;;;5046378;28;20063;-85
2022/11/09 05:10:44;;;;;;;10.10;2.95;;;13.00;99.90;;;;;;5045095;28;20485;-83
2022/11/09 05:13:11;;;;;;;4.15;3.30;;;13.00;99.90;;;;;;5043605;28;20114;-86
2022/11/09 05:15:37;;;;;;;7.30;3.47;;;13.00;99.90;;;;;;5051818;28;20107;-87
2022/11/09 05:18:04;;;;;;;3.88;2.60;;;12.90;99.90;;;;;;5043207;28;20818;-85
2022/11/09 05:20:29;;;;;;;6.72;3.47;;;12.90;99.90;;;;;;5047846;28;20479;-90
2022/11/09 05:25:42;;;;;;;4.30;3.25;;;12.80;99.90;;;;;;5041826;28;20082;-85
2022/11/09 05:28:07;;;;;;;7.90;2.95;;;12.90;99.90;;;;;;5046305;28;20470;-90
2022/11/09 05:30:33;;;;;;;6.15;3.13;;;12.90;99.90;;;;;;5043260;28;20037;-80
2022/11/09 05:32:59;;;;;;;12.63;3.58;;;12.80;99.90;;;;;;5049578;28;20043;-84
2022/11/09 05:35:25;;;;;;;5.30;2.88;;;12.90;99.90;;;;;;5051716;28;20033;-85
2022/11/09 05:37:51;;;;;;;7.97;3.03;;;12.80;99.90;;;;;;5049782;28;20111;-85
2022/11/09 05:40:18;;;;;;;10.60;3.10;;;12.80;99.90;;;;;;5047835;28;20029;-83
2022/11/09 05:42:44;;;;;;;6.85;2.78;;;12.80;99.90;;;;;;5042436;28;20033;-81
2022/11/09 05:45:13;;;;;;;3.78;2.67;;;12.80;99.90;;;;;;5043160;28;20032;-85
2022/11/09 05:47:40;;;;;;;9.25;2.90;;;12.80;99.90;;;;;;5052361;28;20041;-86
2022/11/09 05:50:08;;;;;;;5.63;2.38;;;12.80;99.90;;;;;;5052346;28;20052;-82
2022/11/09 05:52:34;;;;;;;8.00;2.50;;;12.80;99.90;;;;;;5048526;28;20134;-85
2022/11/09 05:55:00;;;;;;;4.25;2.63;;;12.80;99.90;;;;;;5045441;28;20057;-87
2022/11/09 05:57:26;;;;;;;9.80;2.78;;;12.70;99.90;;;;;;5050322;28;20398;-85
2022/11/09 05:59:52;;;;;;;4.47;2.60;;;12.80;99.90;;;;;;5044629;28;20040;-84
2022/11/09 06:02:18;;;;;;;6.30;2.70;;;12.70;99.90;;;;;;5039514;28;20041;-85
2022/11/09 06:04:43;;;;;;;5.82;3.08;;;12.70;99.90;;;;;;5039097;28;20021;-87
2022/11/09 06:07:09;;;;;;;7.13;2.63;;;12.80;99.90;;;;;;5053149;28;20028;-85
2022/11/09 06:09:34;;;;;;;2.88;2.53;;;12.80;99.90;;;;;;5033627;28;20471;-86
2022/11/09 06:12:00;;;;;;;5.10;2.53;;;12.80;99.90;;;;;;5049722;28;20024;-86
2022/11/09 06:14:26;;;;;;;5.82;2.60;;;12.70;99.90;;;;;;5038430;28;20551;-85
2022/11/09 06:16:51;;;;;;;5.80;2.38;;;12.70;99.90;;;;;;5047007;28;20115;-85
2022/11/09 06:19:17;;;;;;;7.43;2.47;;;12.70;99.90;;;;;;5041059;28;20362;-84
2022/11/09 06:21:44;;;;;;;4.82;3.03;;;12.70;99.90;;;;;;5055417;28;20051;-86
2022/11/09 06:24:09;;;;;;;6.13;2.70;;;12.70;99.90;;;;;;5037233;28;20033;-85
2022/11/09 06:26:36;;;;;;;9.55;3.00;;;12.60;99.90;;;;;;5040121;28;20029;-85
2022/11/09 06:29:03;;;;;;;3.95;2.03;;;12.60;99.90;;;;;;5047190;28;20391;-84
2022/11/09 06:31:29;;;;;;;19.30;3.63;;;12.60;99.90;;;;;;5048123;28;20095;-89
2022/11/09 06:33:55;;;;;;;6.82;2.88;;;12.60;99.90;;;;;;5042364;28;20123;-85
2022/11/09 06:36:20;;;;;;;8.32;2.80;;;12.60;99.90;;;;;;5045837;28;20029;-88
2022/11/09 06:38:51;;;;;;;10.10;2.95;;;12.60;99.90;;;;;;5043535;28;20033;-86
2022/11/09 06:41:16;;;;;;;6.60;3.08;;;12.60;99.90;;;;;;5043672;28;20116;-89
2022/11/09 06:43:42;;;;;;;5.32;3.20;;;12.60;99.90;;;;;;5042672;28;20124;-87
2022/11/09 06:46:09;;;;;;;4.93;2.63;;;12.60;99.90;;;;;;5042424;28;20041;-86
2022/11/09 06:48:38;;;;;;;3.85;2.40;;;12.60;99.90;;;;;;5038905;28;20113;-85
2022/11/09 06:51:05;;;;;;;5.90;2.95;;;12.60;99.90;;;;;;5030005;28;20468;-89
2022/11/09 06:53:32;;;;;;;2.53;2.20;;;12.60;99.90;;;;;;5039896;28;20037;-87
2022/11/09 06:56:02;;;;;;;4.03;3.13;;;12.50;99.90;;;;;;5046760;28;20041;-81
2022/11/09 06:58:28;;;;;;;3.88;2.70;;;12.60;99.90;;;;;;5038664;28;20077;-88
2022/11/09 07:00:53;;;;;;;4.68;2.45;;;12.60;99.90;;;;;;5046565;28;20450;-87
2022/11/09 07:03:20;;;;;;;7.63;2.83;;;12.60;99.90;;;;;;5039053;28;20091;-86
2022/11/09 07:05:50;;;;;;;3.40;2.30;;;12.60;99.90;;;;;;5028069;28;20033;-86
2022/11/09 07:08:16;;;;;;;4.60;2.53;;;12.60;99.90;;;;;;5034783;28;20063;-87
2022/11/09 07:10:42;;;;;;;5.57;2.38;;;12.60;99.90;;;;;;5037379;28;20036;-87
2022/11/09 07:13:08;;;;;;;5.25;2.92;;;12.60;99.90;;;;;;5042156;28;20040;-87
2022/11/09 07:15:36;;;;;;;7.22;2.90;;;12.60;99.90;;;;;;5046538;28;20033;-83
2022/11/09 07:18:04;;;;;;;3.40;2.50;;;12.60;99.90;;;;;;5047281;28;20036;-86
2022/11/09 07:20:30;;;;;;;4.45;2.47;;;12.60;99.90;;;;;;5046784;28;20037;-88
2022/11/09 07:22:55;;;;;;;5.28;2.83;;;12.70;99.90;;;;;;5045595;28;20032;-89
2022/11/09 07:25:21;;;;;;;4.57;2.70;;;12.70;99.90;;;;;;5047452;28;20033;-87
2022/11/09 07:27:47;;;;;;;9.82;3.55;;;12.70;99.90;;;;;;5046022;28;20071;-88
2022/11/09 07:30:13;;;;;;;4.18;2.72;;;12.70;99.90;;;;;;5030726;28;20022;-89
2022/11/09 07:32:40;;;;;;;5.28;2.65;;;12.80;99.90;;;;;;5026916;28;20061;-81
2022/11/09 07:35:06;;;;;;;4.20;2.80;;;12.80;99.90;;;;;;5031182;28;20061;-86
2022/11/09 07:37:32;;;;;;;5.07;2.75;;;12.80;99.90;;;;;;5038168;28;20516;-87
2022/11/09 07:39:58;;;;;;;6.82;2.53;;;12.80;99.90;;;;;;5038947;28;20192;-85
2022/11/09 07:42:24;;;;;;;2.85;2.25;;;12.80;99.90;;;;;;5048702;28;20978;-84
2022/11/09 07:44:50;;;;;;;9.35;3.50;;;12.80;99.90;;;;;;5043939;28;20432;-83
2022/11/09 07:47:17;;;;;;;8.50;4.30;;;12.80;99.90;;;;;;5045361;28;20025;-87
2022/11/09 07:49:43;;;;;;;4.25;2.50;;;12.90;99.90;;;;;;5050915;28;20029;-87
2022/11/09 07:52:08;;;;;;;4.15;2.80;;;12.90;99.90;;;;;;5050243;28;20071;-88
2022/11/09 07:54:35;;;;;;;4.60;2.38;;;12.90;99.90;;;;;;5051798;28;20045;-86
2022/11/09 07:57:01;;;;;;;8.02;2.50;;;12.90;99.90;;;;;;5043388;28;20033;-87
2022/11/09 07:59:26;;;;;;;2.40;2.10;;;12.90;99.90;;;;;;5041689;28;20054;-84
2022/11/09 08:01:52;;;;;;;4.65;2.20;;;12.90;99.90;;;;;;5046888;28;20057;-85
2022/11/09 08:04:18;;;;;;;5.70;2.25;;;12.90;99.90;;;;;;5047923;28;20040;-87
2022/11/09 08:06:43;;;;;;;3.30;1.85;;;12.90;99.90;;;;;;5051581;28;20116;-87
2022/11/09 08:09:19;;;;;;;2.72;1.98;;;13.00;99.90;;;;;;5044236;28;20075;-88
2022/11/09 08:11:45;;;;;;;4.75;1.90;;;13.10;99.90;;;;;;5047916;28;20082;-85
2022/11/09 08:14:11;;;;;;;2.95;1.85;;;13.00;99.90;;;;;;5048755;28;20486;-86
2022/11/09 08:16:36;;;;;;;5.57;2.50;;;13.00;99.90;;;;;;5043972;28;20030;-85
2022/11/09 08:19:02;;;;;;;6.00;3.95;;;13.10;99.90;;;;;;5040611;28;20104;-86
2022/11/09 08:21:27;;;;;;;7.75;3.42;;;13.10;99.90;;;;;;5040828;28;20103;-84
2022/11/09 08:23:54;;;;;;;5.97;3.35;;;13.10;99.90;;;;;;5040498;28;20037;-81
2022/11/09 08:26:20;;;;;;;2.80;2.03;;;13.10;99.90;;;;;;5040502;28;20037;-85
2022/11/09 08:28:46;;;;;;;18.55;11.07;;;13.20;99.90;;;;;;5041406;28;20108;-85
2022/11/09 08:31:11;;;;;;;10.23;4.82;;;13.20;99.90;;;;;;5046789;28;20033;-84
2022/11/09 08:33:39;;;;;;;8.48;4.13;;;13.30;99.90;;;;;;5032234;28;20091;-85
2022/11/09 08:36:13;;;;;;;5.97;2.15;;;13.30;99.90;;;;;;5039583;28;20048;-85
2022/11/09 08:38:40;;;;;;;5.22;2.10;;;13.40;99.90;;;;;;5043893;28;20422;-86
2022/11/09 08:41:07;;;;;;;10.50;2.30;;;13.40;99.90;;;;;;5045439;28;20029;-89
2022/11/09 08:43:32;;;;;;;4.70;2.45;;;13.50;99.90;;;;;;5040520;28;20025;-85
2022/11/09 08:46:01;;;;;;;3.65;1.65;;;13.50;99.90;;;;;;5040010;28;20064;-82
2022/11/09 08:48:26;;;;;;;3.63;1.75;;;13.50;99.90;;;;;;5042749;28;20412;-89
2022/11/09 08:50:54;;;;;;;1.67;1.55;;;13.50;99.90;;;;;;5042730;28;20029;-86
2022/11/09 08:53:20;;;;;;;3.33;1.48;;;13.50;99.90;;;;;;5041900;28;20482;-90
2022/11/09 08:55:46;;;;;;;2.50;1.27;;;13.60;99.90;;;;;;5037443;28;20034;-89
2022/11/09 08:58:11;;;;;;;2.13;1.30;;;13.70;99.90;;;;;;5037033;28;20076;-89
2022/11/09 09:00:37;;;;;;;4.63;1.40;;;13.70;99.90;;;;;;5030100;28;20044;-89
2022/11/09 09:03:04;;;;;;;3.17;1.52;;;13.70;99.90;;;;;;5036454;28;20034;-88
2022/11/09 09:05:30;;;;;;;2.47;1.20;;;13.70;99.90;;;;;;5030173;28;20025;-83
2022/11/09 09:07:58;;;;;;;2.15;1.70;;;13.80;99.90;;;;;;5033092;28;20032;-87
2022/11/09 09:10:24;;;;;;;3.10;1.63;;;13.80;99.90;;;;;;5044060;28;20037;-87
2022/11/09 09:12:50;;;;;;;2.13;1.55;;;13.80;99.90;;;;;;5031699;28;20473;-82
2022/11/09 09:15:15;;;;;;;2.50;1.13;;;13.80;99.90;;;;;;5034606;28;20119;-87
2022/11/09 09:17:41;;;;;;;1.80;1.35;;;13.80;99.90;;;;;;5035469;28;20034;-90
2022/11/09 09:20:07;;;;;;;3.45;1.50;;;13.80;99.90;;;;;;5030229;28;20025;-84
2022/11/09 09:22:33;;;;;;;2.17;1.42;;;13.90;99.90;;;;;;5030805;28;20116;-87
2022/11/09 09:25:02;;;;;;;2.00;1.80;;;13.90;99.90;;;;;;5037730;28;20048;-80
2022/11/09 09:27:28;;;;;;;6.63;1.65;;;13.80;99.90;;;;;;5039083;28;20394;-87
2022/11/09 09:29:54;;;;;;;3.30;1.20;;;13.80;99.90;;;;;;5034317;28;20033;-88
2022/11/09 09:32:19;;;;;;;2.40;1.60;;;13.80;99.90;;;;;;5036973;28;20024;-93
2022/11/09 09:34:45;;;;;;;4.90;2.08;;;13.80;99.90;;;;;;5034680;28;20041;-86
2022/11/09 09:37:11;;;;;;;4.47;1.30;;;13.70;99.90;;;;;;5035240;28;20030;-85
2022/11/09 09:39:36;;;;;;;4.00;1.45;;;13.80;99.90;;;;;;5036446;28;20044;-85
2022/11/09 09:42:07;;;;;;;1.63;1.45;;;13.80;99.90;;;;;;5030599;28;20025;-93
2022/11/09 09:44:45;;;;;;;2.05;1.58;;;13.90;99.90;;;;;;5036731;28;20417;-87
2022/11/09 09:47:36;;;;;;;1.50;1.38;;;13.80;99.90;;;;;;5040258;28;20029;-86
2022/11/09 09:50:08;;;;;;;2.78;1.50;;;13.80;99.90;;;;;;5028713;28;20037;-84
2022/11/09 09:52:46;;;;;;;2.92;1.45;;;13.80;99.90;;;;;;5017897;28;20052;-84
2022/11/09 09:55:32;;;;;;;1.77;1.25;;;13.90;99.90;;;;;;5034925;28;20086;-90
2022/11/09 09:58:05;;;;;;;1.48;1.38;;;13.90;99.90;;;;;;5036593;28;20128;-91
2022/11/09 10:00:34;;;;;;;2.47;1.10;;;13.90;99.90;;;;;;5043117;28;20087;-92
2022/11/09 10:03:00;;;;;;;2.13;1.58;;;14.00;99.90;;;;;;5032915;28;20120;-87
2022/11/09 10:06:04;;;;;;;2.85;1.35;;;14.00;99.90;;;;;;5036978;28;20066;-90
2022/11/09 10:08:40;;;;;;;3.95;1.30;;;14.00;99.90;;;;;;5038970;28;20026;-85
2022/11/09 10:11:11;;;;;;;;;;;14.00;99.90;;;;;;5032609;28;20034;-86
2022/11/09 10:14:01;;;;;;;1.13;1.02;;;14.10;99.90;;;;;;5037577;28;20343;-85
2022/11/09 10:17:00;;;;;;;1.05;1.00;;;14.00;99.90;;;;;;5040826;28;20108;-85
2022/11/09 10:19:55;;;;;;;3.90;1.40;;;14.00;99.90;;;;;;5036725;28;20038;-84
2022/11/09 10:22:31;;;;;;;2.80;0.98;;;14.00;99.90;;;;;;5035517;28;20442;-88
2022/11/09 10:25:14;;;;;;;5.65;1.40;;;14.00;99.90;;;;;;5032522;28;20032;-85
2022/11/09 10:27:48;;;;;;;1.50;1.30;;;14.10;99.90;;;;;;5031881;28;20032;-83
2022/11/09 10:30:17;;;;;;;2.35;1.40;;;14.20;99.90;;;;;;5035357;28;20025;-84
2022/11/09 10:32:47;;;;;;;3.08;1.23;;;14.20;99.90;;;;;;5052979;28;20388;-88
2022/11/09 10:35:19;;;;;;;1.77;0.93;;;14.20;99.90;;;;;;5045588;28;20032;-80
2022/11/09 10:37:51;;;;;;;5.07;1.25;;;14.30;99.90;;;;;;5032566;28;20069;-88
2022/11/09 10:40:30;;;;;;;2.17;1.00;;;14.40;99.90;;;;;;5042899;28;20469;-86
2022/11/09 10:43:01;;;;;;;1.63;1.20;;;14.40;99.90;;;;;;5032970;28;20109;-88
2022/11/09 10:45:31;;;;;;;1.90;1.25;;;14.40;99.90;;;;;;5026978;28;20437;-88
2022/11/09 10:48:00;;;;;;;1.35;1.25;;;14.40;99.90;;;;;;5038767;28;20060;-85
2022/11/09 10:50:37;;;;;;;3.85;1.20;;;14.50;99.90;;;;;;5034054;28;20575;-84
2022/11/09 10:53:20;;;;;;;1.65;1.02;;;14.50;99.90;;;;;;5046800;28;20040;-80
2022/11/09 10:55:56;;;;;;;3.55;1.00;;;14.50;99.90;;;;;;5051946;28;20029;-88
2022/11/09 10:58:40;;;;;;;2.03;1.17;;;14.60;99.90;;;;;;5045997;28;20053;-81
2022/11/09 11:01:18;;;;;;;9.13;1.40;;;14.60;99.90;;;;;;5046249;28;20079;-88
2022/11/09 11:03:48;;;;;;;3.13;1.00;;;14.60;99.90;;;;;;5046170;28;20039;-87
2022/11/09 11:06:15;;;;;;;6.43;1.27;;;14.60;99.90;;;;;;5038433;28;20574;-84
2022/11/09 11:08:44;;;;;;;5.43;0.90;;;14.60;99.90;;;;;;5039011;28;20033;-85
2022/11/09 11:11:25;;;;;;;2.70;0.95;;;14.60;99.90;;;;;;5035540;28;20028;-87
2022/11/09 11:14:09;;;;;;;1.33;1.23;;;14.60;99.90;;;;;;5046005;28;20056;-84
2022/11/09 11:16:36;;;;;;;4.53;1.10;;;14.60;99.90;;;;;;5047174;28;20025;-85
2022/11/09 11:19:02;;;;;;;1.92;1.38;;;14.70;99.90;;;;;;5043497;28;20021;-86
2022/11/09 11:21:29;;;;;;;2.40;0.90;;;14.60;99.90;;;;;;5044283;28;20060;-86
2022/11/09 11:24:17;;;;;;;1.70;1.23;;;14.60;99.90;;;;;;5043142;28;20030;-86
2022/11/09 11:26:58;;;;;;;2.60;1.30;;;14.60;99.90;;;;;;5046733;28;20029;-85
2022/11/09 11:29:31;;;;;;;2.90;1.00;;;14.60;99.90;;;;;;5052028;28;20541;-87
2022/11/09 11:31:59;;;;;;;1.98;1.20;;;14.70;99.90;;;;;;5044862;28;20028;-87
2022/11/09 11:34:24;;;;;;;5.55;1.10;;;14.70;99.90;;;;;;5046097;28;20052;-81
2022/11/09 11:37:28;;;;;;;2.88;1.23;;;14.70;99.90;;;;;;5031721;28;20025;-86
2022/11/09 11:40:03;;;;;;;2.40;1.13;;;14.70;99.90;;;;;;5005636;28;20478;-85
2022/11/09 11:42:47;;;;;;;1.58;0.93;;;14.80;99.90;;;;;;5038257;28;20041;-82
2022/11/09 11:45:33;;;;;;;8.57;1.25;;;14.90;99.90;;;;;;5050437;28;20240;-85
2022/11/09 11:48:13;;;;;;;3.22;1.27;;;14.90;99.90;;;;;;5054245;28;20108;-88
2022/11/09 11:50:48;;;;;;;2.17;1.08;;;14.90;99.90;;;;;;5052664;28;20029;-83
2022/11/09 11:53:58;;;;;;;2.83;0.80;;;14.90;99.90;;;;;;5039514;28;20044;-85
2022/11/09 11:56:49;;;;;;;2.95;0.98;;;14.90;99.90;;;;;;5026153;28;20052;-85
2022/11/09 11:59:21;;;;;;;2.75;1.02;;;14.90;99.90;;;;;;5046377;28;20061;-87
2022/11/09 12:02:09;;;;;;;2.00;1.02;;;14.90;99.90;;;;;;5047340;28;20036;-85
2022/11/09 12:05:13;;;;;;;3.92;1.15;;;14.90;99.90;;;;;;5018268;28;20025;-82
2022/11/09 12:08:18;;;;;;;1.35;0.80;;;15.00;99.90;;;;;;5034537;28;20057;-86
2022/11/09 12:10:59;;;;;;;1.58;0.90;;;14.90;99.90;;;;;;5036052;28;20544;-86
2022/11/09 12:13:34;;;;;;;1.20;0.90;;;14.90;99.90;;;;;;5017603;28;20046;-86
2022/11/09 12:16:06;;;;;;;5.93;1.10;;;14.90;99.90;;;;;;5041166;28;20025;-88
2022/11/09 12:18:50;;;;;;;2.72;0.98;;;14.90;99.90;;;;;;5043445;28;20489;-86
2022/11/09 12:21:24;;;;;;;2.08;0.73;;;15.00;99.90;;;;;;5040228;28;20072;-87
2022/11/09 12:24:05;;;;;;;1.20;0.80;;;15.00;99.90;;;;;;5024424;28;20121;-82
2022/11/09 12:27:12;;;;;;;2.35;1.05;;;15.00;99.90;;;;;;5057452;28;20021;-85
2022/11/09 12:29:59;;;;;;;3.92;1.00;;;15.10;99.90;;;;;;4976633;28;20431;-87
2022/11/09 12:32:48;;;;;;;3.33;1.45;;;15.10;99.90;;;;;;5034587;28;20500;-85
2022/11/09 12:35:22;;;;;;;1.08;0.80;;;15.10;99.90;;;;;;5044547;28;20553;-85
2022/11/09 12:38:35;;;;;;;2.30;1.02;;;15.20;99.90;;;;;;5053675;28;20273;-85
2022/11/09 12:41:10;;;;;;;2.33;1.20;;;15.20;99.90;;;;;;5036342;28;20489;-88
2022/11/09 12:43:44;;;;;;;2.05;0.77;;;15.20;99.90;;;;;;5042709;28;20525;-85
2022/11/09 12:46:12;;;;;;;1.05;0.80;;;15.20;99.90;;;;;;5039945;28;20033;-87
2022/11/09 12:48:39;;;;;;;3.55;0.63;;;15.30;99.90;;;;;;5035353;28;20104;-86
2022/11/09 12:51:07;;;;;;;7.70;0.98;;;15.30;99.90;;;;;;5046190;28;20111;-84
2022/11/09 12:53:37;;;;;;;1.10;0.68;;;15.20;99.90;;;;;;5039798;28;20048;-85
2022/11/09 12:56:03;;;;;;;3.00;0.90;;;15.20;99.90;;;;;;5049170;28;20103;-90
2022/11/09 12:58:32;;;;;;;1.23;0.90;;;15.20;99.90;;;;;;5047760;28;20061;-80
2022/11/09 13:01:03;;;;;;;1.23;0.68;;;15.30;99.90;;;;;;5024591;28;20036;-83